Winner, SD

1:24 PM CDT on September 18, 2014 (GMT -0500)
Winner | Change Station
CLOSE
Current Station
Airport
Location: Winner,
Elevation: 2031 ft
Nearby Weather Stations

Elev 2031 ft 43.39 °N, 99.84 °W | Updated 31 minutes ago

Clear
Clear
78 °F
Feels Like 78 °F
N
18
Wind Variable Wind from South
Gusts 28 mph

Today
High -- | Low -- °F
--% Chance of Precip.
Yesterday
High -- | Low -- °F
Precip. -- in
7:22 AM 7:43 PM
Waning Crescent, 25% visible
Pressure 29.86 in
Visibility 10.0 miles
Clouds Clear
Dew Point 58 °F
Humidity 50%
Rainfall 0.00 in
Snow Depth 0 in
UV 7 out of 12
Pollen 5.30 out of 12
Air Quality Not available.
Flu Activity Not available.
METAR KICR 181753Z AUTO 18016G24KT 10SM CLR 26/14 A2989 RMK AO2 PK WND 16029/1742 SLP110 T02560144 10261 20144 58013

More Conditions Fewer Conditions

Pressure 29.86 in
Visibility 10.0 miles
Clouds Clear
Dew Point 58 °F
Humidity 50%
Rainfall 0.00 in
Snow Depth 0 in
UV 7 out of 12
Pollen 5.30 out of 12
Air Quality Not available.
Flu Activity Not available.
METAR KICR 181753Z AUTO 18016G24KT 10SM CLR 26/14 A2989 RMK AO2 PK WND 16029/1742 SLP110 T02560144 10261 20144 58013

More Conditions Fewer Conditions

10-Day Weather Forecast

Almanac

Astronomy

Sep. 18, 2014 Rise Set
Actual Time 7:22 AM CDT 7:43 PM CDT
Civil Twilight 6:53 AM CDT 8:12 PM CDT
Nautical Twilight 6:19 AM CDT 8:46 PM CDT
Astronomical Twilight 5:45 AM CDT 9:20 PM CDT
Moon 2:08 AM CDT 4:42 PM CDT
Length of Visible Light 13h 18m
Length of Day
12h 21m
Tomorrow will be 2m 56s shorter.
Waning Crescent, 25% of the Moon is Illuminated
Today
Waning Crescent
Sep 24
New
Oct 1
First Quarter
Oct 8
Full
Oct 15
Last Quarter

Today's Extremes

State Highs State Lows

Community

WunderPhotos

Upload Photos

1,754,414 photos uploaded!

Nearby

Snow Depth

Station Depth Elevation
Blind Park 0 in 6890 ft

Earthquake Activity

City Distance Mag. Time & Date
No recent earthquake activity has been reported nearby.
Minimum magnitude displayed is 2.5.

Coastal Water Temperatures

Place Temperature
No Stations Reporting

Nearby Weather Stations